Parker, Washington
Current Conditions -  °F | °C
As of 3:53 PM on Tuesday 25 Nov 2014 (Local Time) from KYKM Reporting Station
Broken Clouds Broken Clouds  
Wind Chill: 47°   Ceiling: 6500
Heat Index: 47°   Visibility: 10mi
Dew Point: 39°   Wind: 0mph
Humidity: 74%   Direction: NA
Pressure: 30.19"   Gusts: NA
Location:  46.5°N, 120.47°W
Report Text: KYKM 252353Z 00000KT 10SM BKN065 08/04 A3019 RMK AO2 SLP231 T00830039 10122 20083 53014
Loading
Personal Weather Stations






























Interactive Weather Map New forecast layout! Learn more

10-Day Weather Forecast

Advertisements
Track Severe Weather on mobile